RYR3KM LDDU-LMML
Flight info
| Callsign | RYR3KM |
|---|---|
| Flight time | 1h 14m |
| Altitude | 34000 |
| Route | RIGVA DCT BEVIS DCT SIRGI DCT RCA DCT OLLEK |
| Aircraft | A20N/M-SDE2E3FGHIRWXY/LB1 |
Departure
| Time | 2026-04-29 23:15 |
|---|---|
| Airport | Dubrovnik Ruđer Bošković Airport (LDDU) |
Arrival
| Time | 2026-04-30 00:30 |
|---|---|
| Airport | Malta International Airport (LMML) |
| Time | Latitude | Longitude | Altitude | Speed | Heading |
|---|---|---|---|---|---|
| 2026-04-29 22:41 | 42.56106 | 18.26253 | 521 ft | 0 kts | 208° |
| 2026-04-29 23:01 | 42.56110 | 18.26256 | 521 ft | 1 kts | 208° |
| 2026-04-29 23:01 | 42.56117 | 18.26261 | 521 ft | 2 kts | 208° |
| 2026-04-29 23:02 | 42.56130 | 18.26271 | 522 ft | 2 kts | 208° |
| 2026-04-29 23:02 | 42.56139 | 18.26277 | 522 ft | 2 kts | 213° |
| 2026-04-29 23:02 | 42.56150 | 18.26291 | 523 ft | 2 kts | 248° |
| 2026-04-29 23:02 | 42.56151 | 18.26310 | 523 ft | 2 kts | 291° |
| 2026-04-29 23:03 | 42.56149 | 18.26320 | 523 ft | 0 kts | 296° |
| 2026-04-29 23:04 | 42.56149 | 18.26319 | 523 ft | 1 kts | 296° |
| 2026-04-29 23:05 | 42.56157 | 18.26299 | 523 ft | 4 kts | 297° |
| 2026-04-29 23:05 | 42.56176 | 18.26249 | 523 ft | 8 kts | 298° |
| 2026-04-29 23:05 | 42.56208 | 18.26171 | 523 ft | 11 kts | 299° |
| 2026-04-29 23:05 | 42.56251 | 18.26067 | 523 ft | 14 kts | 300° |
| 2026-04-29 23:06 | 42.56253 | 18.26063 | 523 ft | 14 kts | 299° |
| 2026-04-29 23:09 | 42.56267 | 18.26029 | 523 ft | 11 kts | 300° |
| 2026-04-29 23:09 | 42.56299 | 18.25948 | 523 ft | 11 kts | 297° |
| 2026-04-29 23:09 | 42.56331 | 18.25867 | 523 ft | 6 kts | 298° |
| 2026-04-29 23:10 | 42.56332 | 18.25864 | 523 ft | 6 kts | 298° |
| 2026-04-29 23:10 | 42.56359 | 18.25798 | 523 ft | 10 kts | 299° |
| 2026-04-29 23:10 | 42.56396 | 18.25710 | 523 ft | 12 kts | 298° |
| 2026-04-29 23:11 | 42.56423 | 18.25639 | 525 ft | 6 kts | 298° |
| 2026-04-29 23:11 | 42.56446 | 18.25578 | 525 ft | 9 kts | 297° |
| 2026-04-29 23:11 | 42.56451 | 18.25567 | 525 ft | 9 kts | 297° |
| 2026-04-29 23:11 | 42.56469 | 18.25519 | 525 ft | 11 kts | 297° |
| 2026-04-29 23:12 | 42.56510 | 18.25412 | 524 ft | 15 kts | 297° |
| 2026-04-29 23:12 | 42.56565 | 18.25267 | 522 ft | 19 kts | 297° |
| 2026-04-29 23:12 | 42.56622 | 18.25124 | 525 ft | 15 kts | 298° |
| 2026-04-29 23:12 | 42.56675 | 18.24992 | 524 ft | 15 kts | 299° |
| 2026-04-29 23:13 | 42.56714 | 18.24894 | 525 ft | 13 kts | 297° |
| 2026-04-29 23:13 | 42.56760 | 18.24783 | 526 ft | 15 kts | 301° |
| 2026-04-29 23:13 | 42.56805 | 18.24697 | 524 ft | 13 kts | 324° |
| 2026-04-29 23:13 | 42.56859 | 18.24679 | 524 ft | 3 kts | 0° |
| 2026-04-29 23:14 | 42.56882 | 18.24687 | 525 ft | 4 kts | 24° |
| 2026-04-29 23:14 | 42.56907 | 18.24709 | 526 ft | 5 kts | 40° |
| 2026-04-29 23:14 | 42.56929 | 18.24756 | 526 ft | 7 kts | 69° |
| 2026-04-29 23:14 | 42.56929 | 18.24828 | 525 ft | 7 kts | 110° |
| 2026-04-29 23:15 | 42.56922 | 18.24848 | 525 ft | 18 kts | 115° |
| 2026-04-29 23:15 | 42.56714 | 18.25373 | 525 ft | 105 kts | 118° |
| 2026-04-29 23:15 | 42.56257 | 18.26518 | 562 ft | 166 kts | 118° |
| 2026-04-29 23:15 | 42.55719 | 18.27879 | 1433 ft | 163 kts | 117° |
| 2026-04-29 23:16 | 42.55177 | 18.29249 | 2373 ft | 166 kts | 119° |
| 2026-04-29 23:16 | 42.54600 | 18.30667 | 3013 ft | 182 kts | 121° |
| 2026-04-29 23:16 | 42.53938 | 18.32238 | 3516 ft | 202 kts | 121° |
| 2026-04-29 23:16 | 42.52958 | 18.33688 | 3951 ft | 222 kts | 155° |
| 2026-04-29 23:17 | 42.51393 | 18.33986 | 4415 ft | 242 kts | 194° |
| 2026-04-29 23:17 | 42.49869 | 18.32872 | 4989 ft | 260 kts | 221° |
| 2026-04-29 23:17 | 42.48427 | 18.31361 | 5877 ft | 265 kts | 206° |
| 2026-04-29 23:17 | 42.46675 | 18.30545 | 6830 ft | 269 kts | 195° |
| 2026-04-29 23:18 | 42.44830 | 18.30002 | 7735 ft | 273 kts | 193° |
| 2026-04-29 23:18 | 42.42956 | 18.29481 | 8660 ft | 277 kts | 194° |
| 2026-04-29 23:18 | 42.41086 | 18.28910 | 9555 ft | 282 kts | 195° |
| 2026-04-29 23:18 | 42.39163 | 18.28271 | 10388 ft | 289 kts | 196° |
| 2026-04-29 23:19 | 42.37140 | 18.27561 | 10741 ft | 313 kts | 197° |
| 2026-04-29 23:19 | 42.34956 | 18.26774 | 11069 ft | 334 kts | 197° |
| 2026-04-29 23:19 | 42.32687 | 18.25956 | 11800 ft | 340 kts | 197° |
| 2026-04-29 23:19 | 42.30387 | 18.25129 | 12621 ft | 344 kts | 197° |
| 2026-04-29 23:20 | 42.28049 | 18.24293 | 13427 ft | 349 kts | 196° |
| 2026-04-29 23:20 | 42.25637 | 18.23716 | 14181 ft | 356 kts | 188° |
| 2026-04-29 23:20 | 42.23153 | 18.23400 | 14873 ft | 361 kts | 188° |
| 2026-04-29 23:20 | 42.20642 | 18.23076 | 15570 ft | 365 kts | 188° |
| 2026-04-29 23:21 | 42.18100 | 18.22743 | 16271 ft | 369 kts | 188° |
| 2026-04-29 23:21 | 42.15529 | 18.22402 | 16955 ft | 373 kts | 188° |
| 2026-04-29 23:21 | 42.12927 | 18.22056 | 17633 ft | 378 kts | 189° |
| 2026-04-29 23:21 | 42.10290 | 18.21706 | 18302 ft | 382 kts | 189° |
| 2026-04-29 23:22 | 42.07634 | 18.21353 | 18900 ft | 386 kts | 189° |
| 2026-04-29 23:22 | 42.04940 | 18.20996 | 19468 ft | 390 kts | 189° |
| 2026-04-29 23:22 | 42.02229 | 18.20636 | 20061 ft | 394 kts | 189° |
| 2026-04-29 23:22 | 41.99488 | 18.20273 | 20634 ft | 398 kts | 189° |
| 2026-04-29 23:23 | 41.96718 | 18.19900 | 21214 ft | 401 kts | 191° |
| 2026-04-29 23:23 | 41.93992 | 18.19146 | 21778 ft | 400 kts | 201° |
| 2026-04-29 23:23 | 41.91409 | 18.17770 | 22341 ft | 399 kts | 211° |
| 2026-04-29 23:23 | 41.89027 | 18.15862 | 22908 ft | 400 kts | 217° |
| 2026-04-29 23:24 | 41.86680 | 18.13838 | 23470 ft | 403 kts | 216° |
| 2026-04-29 23:24 | 41.84305 | 18.11804 | 23963 ft | 407 kts | 216° |
| 2026-04-29 23:24 | 41.81942 | 18.09787 | 24447 ft | 409 kts | 216° |
| 2026-04-29 23:24 | 41.79501 | 18.07709 | 24929 ft | 412 kts | 216° |
| 2026-04-29 23:25 | 41.77072 | 18.05644 | 25390 ft | 414 kts | 216° |
| 2026-04-29 23:25 | 41.74664 | 18.03598 | 25835 ft | 417 kts | 216° |
| 2026-04-29 23:25 | 41.72207 | 18.01514 | 26291 ft | 420 kts | 216° |
| 2026-04-29 23:25 | 41.69733 | 17.99416 | 26717 ft | 422 kts | 216° |
| 2026-04-29 23:26 | 41.67241 | 17.97305 | 27141 ft | 425 kts | 216° |
| 2026-04-29 23:26 | 41.64736 | 17.95185 | 27550 ft | 428 kts | 216° |
| 2026-04-29 23:26 | 41.62216 | 17.93055 | 27945 ft | 430 kts | 216° |
| 2026-04-29 23:26 | 41.59680 | 17.90913 | 28340 ft | 433 kts | 216° |
| 2026-04-29 23:27 | 41.57126 | 17.88758 | 28702 ft | 435 kts | 216° |
| 2026-04-29 23:27 | 41.54560 | 17.86594 | 29074 ft | 438 kts | 216° |
| 2026-04-29 23:27 | 41.51976 | 17.84417 | 29426 ft | 440 kts | 216° |
| 2026-04-29 23:27 | 41.49380 | 17.82233 | 29776 ft | 442 kts | 216° |
| 2026-04-29 23:28 | 41.46768 | 17.80037 | 30105 ft | 445 kts | 216° |
| 2026-04-29 23:28 | 41.44145 | 17.77833 | 30417 ft | 447 kts | 216° |
| 2026-04-29 23:28 | 41.41506 | 17.75619 | 30726 ft | 449 kts | 216° |
| 2026-04-29 23:28 | 41.38859 | 17.73401 | 31049 ft | 451 kts | 216° |
| 2026-04-29 23:29 | 41.36206 | 17.71179 | 31417 ft | 451 kts | 216° |
| 2026-04-29 23:29 | 41.33554 | 17.68961 | 31835 ft | 449 kts | 216° |
| 2026-04-29 23:29 | 41.30908 | 17.66752 | 32242 ft | 448 kts | 216° |
| 2026-04-29 23:29 | 41.28270 | 17.64549 | 32663 ft | 447 kts | 216° |
| 2026-04-29 23:30 | 41.25638 | 17.62354 | 33055 ft | 446 kts | 216° |
| 2026-04-29 23:30 | 41.23015 | 17.60168 | 33442 ft | 445 kts | 216° |
| 2026-04-29 23:30 | 41.20396 | 17.57988 | 33817 ft | 444 kts | 216° |
| 2026-04-29 23:30 | 41.17781 | 17.55812 | 33998 ft | 443 kts | 216° |
| 2026-04-29 23:31 | 41.12574 | 17.51488 | 34033 ft | 441 kts | 216° |
| 2026-04-29 23:31 | 41.07409 | 17.47204 | 34034 ft | 441 kts | 216° |
| 2026-04-29 23:32 | 41.02203 | 17.42896 | 34027 ft | 441 kts | 216° |
| 2026-04-29 23:32 | 40.96991 | 17.38591 | 34024 ft | 441 kts | 216° |
| 2026-04-29 23:33 | 40.91780 | 17.34296 | 34026 ft | 441 kts | 216° |
| 2026-04-29 23:33 | 40.86562 | 17.30001 | 34033 ft | 442 kts | 216° |
| 2026-04-29 23:34 | 40.81346 | 17.25718 | 34039 ft | 442 kts | 216° |
| 2026-04-29 23:34 | 40.76117 | 17.21432 | 34043 ft | 442 kts | 216° |
| 2026-04-29 23:35 | 40.70890 | 17.17155 | 34046 ft | 443 kts | 216° |
| 2026-04-29 23:35 | 40.65651 | 17.12877 | 34044 ft | 443 kts | 216° |
| 2026-04-29 23:36 | 40.60448 | 17.08636 | 34046 ft | 443 kts | 216° |
| 2026-04-29 23:36 | 40.55204 | 17.04369 | 34044 ft | 443 kts | 216° |
| 2026-04-29 23:37 | 40.49962 | 17.00113 | 34040 ft | 443 kts | 216° |
| 2026-04-29 23:37 | 40.44720 | 16.95865 | 34095 ft | 443 kts | 216° |
| 2026-04-29 23:38 | 40.39476 | 16.91621 | 34112 ft | 443 kts | 216° |
| 2026-04-29 23:38 | 40.34231 | 16.87387 | 34124 ft | 443 kts | 216° |
| 2026-04-29 23:39 | 40.28985 | 16.83157 | 34125 ft | 443 kts | 216° |
| 2026-04-29 23:39 | 40.23740 | 16.78938 | 34117 ft | 443 kts | 215° |
| 2026-04-29 23:40 | 40.18484 | 16.74716 | 34100 ft | 443 kts | 215° |
| 2026-04-29 23:40 | 40.13186 | 16.70598 | 34082 ft | 445 kts | 211° |
| 2026-04-29 23:41 | 40.07468 | 16.67383 | 34050 ft | 448 kts | 206° |
| 2026-04-29 23:41 | 40.01684 | 16.64330 | 34043 ft | 448 kts | 206° |
| 2026-04-29 23:42 | 39.95907 | 16.61269 | 34054 ft | 449 kts | 206° |
| 2026-04-29 23:42 | 39.90122 | 16.58211 | 34059 ft | 449 kts | 206° |
| 2026-04-29 23:43 | 39.84332 | 16.55156 | 34061 ft | 449 kts | 206° |
| 2026-04-29 23:43 | 39.78544 | 16.52108 | 34072 ft | 449 kts | 206° |
| 2026-04-29 23:44 | 39.72754 | 16.49065 | 34077 ft | 449 kts | 206° |
| 2026-04-29 23:44 | 39.66988 | 16.46046 | 34080 ft | 445 kts | 207° |
| 2026-04-29 23:45 | 39.61243 | 16.43035 | 34084 ft | 445 kts | 207° |
| 2026-04-29 23:45 | 39.55535 | 16.40050 | 34093 ft | 445 kts | 207° |
| 2026-04-29 23:46 | 39.49790 | 16.37053 | 34102 ft | 444 kts | 207° |
| 2026-04-29 23:46 | 39.44054 | 16.34064 | 34111 ft | 444 kts | 207° |
| 2026-04-29 23:47 | 39.38316 | 16.31080 | 34120 ft | 445 kts | 207° |
| 2026-04-29 23:47 | 39.32575 | 16.28101 | 34116 ft | 445 kts | 207° |
| 2026-04-29 23:48 | 39.26836 | 16.25129 | 34118 ft | 444 kts | 207° |
| 2026-04-29 23:48 | 39.21113 | 16.22169 | 34092 ft | 442 kts | 207° |
| 2026-04-29 23:49 | 39.15400 | 16.19219 | 34077 ft | 442 kts | 207° |
| 2026-04-29 23:49 | 39.09694 | 16.16279 | 34067 ft | 442 kts | 207° |
| 2026-04-29 23:50 | 39.03988 | 16.13343 | 34052 ft | 442 kts | 207° |
| 2026-04-29 23:51 | 38.95440 | 16.08957 | 34047 ft | 441 kts | 208° |
| 2026-04-29 23:51 | 38.89747 | 16.06041 | 34046 ft | 440 kts | 208° |
| 2026-04-29 23:52 | 38.84067 | 16.03137 | 34047 ft | 439 kts | 208° |
| 2026-04-29 23:52 | 38.78384 | 16.00236 | 34048 ft | 439 kts | 208° |
| 2026-04-29 23:53 | 38.73668 | 15.97831 | 34047 ft | 439 kts | 208° |
| 2026-04-29 23:53 | 38.67990 | 15.94941 | 34049 ft | 439 kts | 208° |
| 2026-04-29 23:54 | 38.61386 | 15.91586 | 34053 ft | 440 kts | 208° |
| 2026-04-29 23:54 | 38.56615 | 15.89167 | 34055 ft | 440 kts | 208° |
| 2026-04-29 23:55 | 38.50921 | 15.86284 | 34056 ft | 440 kts | 208° |
| 2026-04-29 23:55 | 38.45227 | 15.83406 | 34054 ft | 440 kts | 208° |
| 2026-04-29 23:56 | 38.39534 | 15.80533 | 34068 ft | 440 kts | 208° |
| 2026-04-29 23:56 | 38.33865 | 15.77678 | 34065 ft | 441 kts | 208° |
| 2026-04-29 23:57 | 38.28124 | 15.74790 | 34068 ft | 441 kts | 208° |
| 2026-04-29 23:57 | 38.22456 | 15.71945 | 34073 ft | 441 kts | 208° |
| 2026-04-29 23:58 | 38.16745 | 15.69081 | 34081 ft | 441 kts | 208° |
| 2026-04-29 23:58 | 38.11029 | 15.66219 | 34082 ft | 442 kts | 208° |
| 2026-04-29 23:59 | 38.05446 | 15.63051 | 34089 ft | 435 kts | 215° |
| 2026-04-29 23:59 | 38.00131 | 15.59376 | 34055 ft | 435 kts | 215° |
| 2026-04-30 00:00 | 37.94816 | 15.55718 | 34057 ft | 434 kts | 214° |
| 2026-04-30 00:00 | 37.89505 | 15.52080 | 34059 ft | 434 kts | 214° |
| 2026-04-30 00:01 | 37.84222 | 15.48471 | 33664 ft | 429 kts | 214° |
| 2026-04-30 00:01 | 37.81599 | 15.46681 | 33048 ft | 428 kts | 214° |
| 2026-04-30 00:01 | 37.78978 | 15.44893 | 32324 ft | 427 kts | 214° |
| 2026-04-30 00:01 | 37.76361 | 15.43109 | 31568 ft | 428 kts | 214° |
| 2026-04-30 00:02 | 37.73742 | 15.41325 | 30807 ft | 428 kts | 214° |
| 2026-04-30 00:02 | 37.71120 | 15.39541 | 30131 ft | 426 kts | 214° |
| 2026-04-30 00:02 | 37.68521 | 15.37775 | 29452 ft | 422 kts | 214° |
| 2026-04-30 00:02 | 37.65944 | 15.36025 | 28756 ft | 419 kts | 214° |
| 2026-04-30 00:03 | 37.63384 | 15.34287 | 28086 ft | 416 kts | 214° |
| 2026-04-30 00:03 | 37.60843 | 15.32562 | 27418 ft | 413 kts | 213° |
| 2026-04-30 00:03 | 37.58319 | 15.30851 | 26758 ft | 410 kts | 213° |
| 2026-04-30 00:03 | 37.55817 | 15.29155 | 26124 ft | 408 kts | 213° |
| 2026-04-30 00:04 | 37.53320 | 15.27465 | 25504 ft | 406 kts | 213° |
| 2026-04-30 00:04 | 37.50843 | 15.25789 | 24892 ft | 403 kts | 213° |
| 2026-04-30 00:04 | 37.48377 | 15.24122 | 24302 ft | 401 kts | 213° |
| 2026-04-30 00:04 | 37.45925 | 15.22465 | 23710 ft | 400 kts | 213° |
| 2026-04-30 00:05 | 37.43478 | 15.20814 | 23059 ft | 397 kts | 212° |
| 2026-04-30 00:05 | 37.41055 | 15.19181 | 22452 ft | 394 kts | 212° |
| 2026-04-30 00:05 | 37.38651 | 15.17561 | 21849 ft | 390 kts | 212° |
| 2026-04-30 00:05 | 37.36263 | 15.15953 | 21238 ft | 388 kts | 212° |
| 2026-04-30 00:06 | 37.33895 | 15.14360 | 20658 ft | 385 kts | 212° |
| 2026-04-30 00:06 | 37.31544 | 15.12779 | 20091 ft | 382 kts | 212° |
| 2026-04-30 00:06 | 37.29209 | 15.11211 | 19528 ft | 379 kts | 212° |
| 2026-04-30 00:06 | 37.26920 | 15.09674 | 19022 ft | 377 kts | 211° |
| 2026-04-30 00:07 | 37.24617 | 15.08129 | 18485 ft | 374 kts | 211° |
| 2026-04-30 00:07 | 37.22331 | 15.06597 | 17914 ft | 371 kts | 211° |
| 2026-04-30 00:07 | 37.20061 | 15.05077 | 17347 ft | 368 kts | 211° |
| 2026-04-30 00:07 | 37.17815 | 15.03574 | 16786 ft | 364 kts | 211° |
| 2026-04-30 00:08 | 37.15589 | 15.02085 | 16253 ft | 361 kts | 211° |
| 2026-04-30 00:08 | 37.13381 | 15.00609 | 15719 ft | 359 kts | 211° |
| 2026-04-30 00:08 | 37.11187 | 14.99144 | 15219 ft | 356 kts | 211° |
| 2026-04-30 00:08 | 37.09011 | 14.97692 | 14703 ft | 353 kts | 211° |
| 2026-04-30 00:09 | 37.06854 | 14.96253 | 14202 ft | 351 kts | 211° |
| 2026-04-30 00:09 | 37.04707 | 14.94821 | 13692 ft | 348 kts | 211° |
| 2026-04-30 00:09 | 37.02580 | 14.93403 | 13141 ft | 345 kts | 211° |
| 2026-04-30 00:09 | 37.00467 | 14.91996 | 12719 ft | 340 kts | 211° |
| 2026-04-30 00:10 | 36.98379 | 14.90607 | 12582 ft | 343 kts | 211° |
| 2026-04-30 00:10 | 36.96269 | 14.89203 | 12538 ft | 343 kts | 211° |
| 2026-04-30 00:10 | 36.94170 | 14.87808 | 12257 ft | 341 kts | 210° |
| 2026-04-30 00:10 | 36.92090 | 14.86427 | 11817 ft | 338 kts | 210° |
| 2026-04-30 00:11 | 36.90011 | 14.85047 | 11305 ft | 337 kts | 210° |
| 2026-04-30 00:11 | 36.87951 | 14.83681 | 10808 ft | 334 kts | 210° |
| 2026-04-30 00:11 | 36.85906 | 14.82326 | 10396 ft | 330 kts | 210° |
| 2026-04-30 00:11 | 36.83920 | 14.81013 | 10265 ft | 316 kts | 210° |
| 2026-04-30 00:12 | 36.82020 | 14.79758 | 10143 ft | 302 kts | 210° |
| 2026-04-30 00:12 | 36.80206 | 14.78560 | 10031 ft | 289 kts | 210° |
| 2026-04-30 00:12 | 36.78447 | 14.77397 | 9717 ft | 284 kts | 210° |
| 2026-04-30 00:12 | 36.76708 | 14.76245 | 9318 ft | 282 kts | 210° |
| 2026-04-30 00:13 | 36.74983 | 14.75103 | 8926 ft | 280 kts | 210° |
| 2026-04-30 00:13 | 36.73264 | 14.73967 | 8540 ft | 278 kts | 209° |
| 2026-04-30 00:13 | 36.71560 | 14.72841 | 8164 ft | 276 kts | 209° |
| 2026-04-30 00:13 | 36.69871 | 14.71727 | 7807 ft | 273 kts | 209° |
| 2026-04-30 00:14 | 36.68198 | 14.70623 | 7440 ft | 271 kts | 208° |
| 2026-04-30 00:14 | 36.66534 | 14.69526 | 7045 ft | 270 kts | 208° |
| 2026-04-30 00:14 | 36.64881 | 14.68436 | 6697 ft | 268 kts | 208° |
| 2026-04-30 00:14 | 36.63240 | 14.67356 | 6331 ft | 266 kts | 208° |
| 2026-04-30 00:15 | 36.61623 | 14.66292 | 6139 ft | 260 kts | 207° |
| 2026-04-30 00:15 | 36.60002 | 14.65225 | 6072 ft | 266 kts | 207° |
| 2026-04-30 00:15 | 36.58378 | 14.64158 | 5951 ft | 263 kts | 207° |
| 2026-04-30 00:15 | 36.56760 | 14.63095 | 5624 ft | 262 kts | 207° |
| 2026-04-30 00:16 | 36.55149 | 14.62036 | 5302 ft | 260 kts | 207° |
| 2026-04-30 00:16 | 36.53556 | 14.60990 | 5173 ft | 260 kts | 207° |
| 2026-04-30 00:16 | 36.51946 | 14.59934 | 5103 ft | 262 kts | 207° |
| 2026-04-30 00:16 | 36.50335 | 14.58877 | 5028 ft | 261 kts | 206° |
| 2026-04-30 00:17 | 36.48728 | 14.57833 | 4955 ft | 261 kts | 206° |
| 2026-04-30 00:17 | 36.47136 | 14.56829 | 4884 ft | 260 kts | 205° |
| 2026-04-30 00:17 | 36.45521 | 14.55820 | 4817 ft | 260 kts | 205° |
| 2026-04-30 00:17 | 36.43911 | 14.54813 | 4739 ft | 259 kts | 205° |
| 2026-04-30 00:18 | 36.42299 | 14.53801 | 4659 ft | 259 kts | 205° |
| 2026-04-30 00:18 | 36.40700 | 14.52797 | 4582 ft | 257 kts | 205° |
| 2026-04-30 00:18 | 36.39091 | 14.51786 | 4500 ft | 260 kts | 205° |
| 2026-04-30 00:18 | 36.37480 | 14.50773 | 4429 ft | 259 kts | 205° |
| 2026-04-30 00:19 | 36.35872 | 14.49762 | 4351 ft | 260 kts | 205° |
| 2026-04-30 00:19 | 36.34258 | 14.48748 | 4273 ft | 259 kts | 205° |
| 2026-04-30 00:19 | 36.32652 | 14.47740 | 4202 ft | 260 kts | 205° |
| 2026-04-30 00:19 | 36.31040 | 14.46729 | 4123 ft | 258 kts | 205° |
| 2026-04-30 00:20 | 36.29432 | 14.45721 | 3961 ft | 259 kts | 205° |
| 2026-04-30 00:20 | 36.27825 | 14.44714 | 3824 ft | 259 kts | 205° |
| 2026-04-30 00:20 | 36.26218 | 14.43707 | 3700 ft | 258 kts | 204° |
| 2026-04-30 00:20 | 36.24623 | 14.42706 | 3601 ft | 257 kts | 204° |
| 2026-04-30 00:21 | 36.23017 | 14.41702 | 3529 ft | 259 kts | 204° |
| 2026-04-30 00:21 | 36.21411 | 14.40695 | 3462 ft | 258 kts | 204° |
| 2026-04-30 00:21 | 36.19829 | 14.39707 | 3385 ft | 258 kts | 204° |
| 2026-04-30 00:21 | 36.18212 | 14.38695 | 3319 ft | 257 kts | 204° |
| 2026-04-30 00:22 | 36.16634 | 14.37709 | 3238 ft | 258 kts | 204° |
| 2026-04-30 00:22 | 36.15034 | 14.36709 | 3179 ft | 257 kts | 204° |
| 2026-04-30 00:22 | 36.13436 | 14.35712 | 3170 ft | 257 kts | 204° |
| 2026-04-30 00:22 | 36.11848 | 14.34722 | 3172 ft | 256 kts | 204° |
| 2026-04-30 00:23 | 36.10258 | 14.33730 | 3167 ft | 257 kts | 204° |
| 2026-04-30 00:23 | 36.08663 | 14.32735 | 3175 ft | 256 kts | 204° |
| 2026-04-30 00:23 | 36.07077 | 14.31747 | 3174 ft | 256 kts | 204° |
| 2026-04-30 00:23 | 36.05501 | 14.30764 | 3178 ft | 248 kts | 203° |
| 2026-04-30 00:24 | 36.04002 | 14.29827 | 3129 ft | 236 kts | 203° |
| 2026-04-30 00:24 | 36.02507 | 14.29233 | 2995 ft | 216 kts | 179° |
| 2026-04-30 00:24 | 36.01104 | 14.29553 | 2911 ft | 200 kts | 155° |
| 2026-04-30 00:24 | 35.99966 | 14.30413 | 2902 ft | 185 kts | 142° |
| 2026-04-30 00:25 | 35.99011 | 14.31447 | 2912 ft | 186 kts | 137° |
| 2026-04-30 00:25 | 35.98092 | 14.32560 | 2908 ft | 184 kts | 136° |
| 2026-04-30 00:25 | 35.97217 | 14.33637 | 2919 ft | 170 kts | 136° |
| 2026-04-30 00:25 | 35.96420 | 14.34617 | 2904 ft | 154 kts | 136° |
| 2026-04-30 00:26 | 35.95702 | 14.35501 | 2903 ft | 138 kts | 136° |
| 2026-04-30 00:26 | 35.95029 | 14.36330 | 2854 ft | 139 kts | 136° |
| 2026-04-30 00:26 | 35.94366 | 14.37146 | 2685 ft | 129 kts | 136° |
| 2026-04-30 00:26 | 35.93747 | 14.37908 | 2516 ft | 126 kts | 135° |
| 2026-04-30 00:27 | 35.93135 | 14.38662 | 2357 ft | 126 kts | 135° |
| 2026-04-30 00:27 | 35.92520 | 14.39419 | 2177 ft | 124 kts | 135° |
| 2026-04-30 00:27 | 35.91905 | 14.40176 | 2022 ft | 125 kts | 135° |
| 2026-04-30 00:27 | 35.91295 | 14.40928 | 1859 ft | 123 kts | 135° |
| 2026-04-30 00:28 | 35.90683 | 14.41683 | 1698 ft | 125 kts | 135° |
| 2026-04-30 00:28 | 35.90069 | 14.42440 | 1523 ft | 125 kts | 135° |
| 2026-04-30 00:28 | 35.89451 | 14.43201 | 1355 ft | 126 kts | 135° |
| 2026-04-30 00:28 | 35.88832 | 14.43963 | 1185 ft | 126 kts | 134° |
| 2026-04-30 00:29 | 35.88217 | 14.44721 | 1016 ft | 125 kts | 133° |
| 2026-04-30 00:29 | 35.87590 | 14.45495 | 836 ft | 130 kts | 134° |
| 2026-04-30 00:29 | 35.86948 | 14.46281 | 686 ft | 132 kts | 134° |
| 2026-04-30 00:29 | 35.86297 | 14.47072 | 452 ft | 129 kts | 131° |
| 2026-04-30 00:30 | 35.85691 | 14.47823 | 278 ft | 120 kts | 132° |
| 2026-04-30 00:30 | 35.85207 | 14.48432 | 252 ft | 60 kts | 137° |
| 2026-04-30 00:30 | 35.85087 | 14.48571 | 251 ft | 10 kts | 136° |
| 2026-04-30 00:30 | 35.85024 | 14.48649 | 251 ft | 15 kts | 135° |
| 2026-04-30 00:31 | 35.84944 | 14.48748 | 250 ft | 18 kts | 135° |
| 2026-04-30 00:31 | 35.84849 | 14.48867 | 249 ft | 21 kts | 134° |
| 2026-04-30 00:31 | 35.84802 | 14.48928 | 249 ft | 1 kts | 131° |
| 2026-04-30 00:31 | 35.84797 | 14.48971 | 249 ft | 7 kts | 60° |
| 2026-04-30 00:32 | 35.84856 | 14.48978 | 249 ft | 11 kts | 348° |
| 2026-04-30 00:32 | 35.84919 | 14.48991 | 250 ft | 10 kts | 48° |
| 2026-04-30 00:32 | 35.84921 | 14.49078 | 250 ft | 9 kts | 121° |
| 2026-04-30 00:32 | 35.84901 | 14.49147 | 250 ft | 9 kts | 68° |
| 2026-04-30 00:33 | 35.84941 | 14.49212 | 250 ft | 11 kts | 75° |
| 2026-04-30 00:33 | 35.84911 | 14.49305 | 250 ft | 10 kts | 133° |
| 2026-04-30 00:33 | 35.84862 | 14.49361 | 250 ft | 10 kts | 136° |
| 2026-04-30 00:33 | 35.84854 | 14.49389 | 250 ft | 2 kts | 47° |
| 2026-04-30 00:34 | 35.84882 | 14.49396 | 250 ft | 6 kts | 1° |
| 2026-04-30 00:34 | 35.84900 | 14.49396 | 250 ft | 3 kts | 1° |
| 2026-04-30 00:34 | 35.84909 | 14.49396 | 250 ft | 0 kts | 1° |